sensor_id;sensor_type;location;lat;lon;timestamp;P1;durP1;ratioP1;P2;durP2;ratioP2
12814;SDS011;6472;52.328;13.070;2023-05-10T00:02:03;2.50;;;2.30;;
12814;SDS011;6472;52.328;13.070;2023-05-10T00:04:31;2.23;;;2.03;;
12814;SDS011;6472;52.328;13.070;2023-05-10T00:06:59;7.13;;;2.90;;
12814;SDS011;6472;52.328;13.070;2023-05-10T00:09:27;3.07;;;2.40;;
12814;SDS011;6472;52.328;13.070;2023-05-10T00:11:55;3.13;;;2.70;;
12814;SDS011;6472;52.328;13.070;2023-05-10T00:14:24;3.37;;;2.70;;
12814;SDS011;6472;52.328;13.070;2023-05-10T00:16:53;4.97;;;2.77;;
12814;SDS011;6472;52.328;13.070;2023-05-10T00:19:21;2.73;;;2.30;;
12814;SDS011;6472;52.328;13.070;2023-05-10T00:21:49;3.57;;;2.53;;
12814;SDS011;6472;52.328;13.070;2023-05-10T00:24:17;3.03;;;2.63;;
12814;SDS011;6472;52.328;13.070;2023-05-10T00:26:45;3.10;;;2.37;;
12814;SDS011;6472;52.328;13.070;2023-05-10T00:29:13;8.73;;;3.13;;
12814;SDS011;6472;52.328;13.070;2023-05-10T00:31:41;4.40;;;2.63;;
12814;SDS011;6472;52.328;13.070;2023-05-10T00:34:11;3.50;;;2.40;;
12814;SDS011;6472;52.328;13.070;2023-05-10T00:36:39;5.13;;;3.73;;
12814;SDS011;6472;52.328;13.070;2023-05-10T00:39:07;3.00;;;2.70;;
12814;SDS011;6472;52.328;13.070;2023-05-10T00:41:35;4.80;;;2.57;;
12814;SDS011;6472;52.328;13.070;2023-05-10T00:44:03;2.93;;;2.50;;
12814;SDS011;6472;52.328;13.070;2023-05-10T00:46:31;3.83;;;2.67;;
12814;SDS011;6472;52.328;13.070;2023-05-10T00:48:59;2.97;;;2.60;;
12814;SDS011;6472;52.328;13.070;2023-05-10T00:51:29;2.80;;;2.50;;
12814;SDS011;6472;52.328;13.070;2023-05-10T00:53:57;4.37;;;2.23;;
12814;SDS011;6472;52.328;13.070;2023-05-10T00:56:26;3.13;;;2.80;;
12814;SDS011;6472;52.328;13.070;2023-05-10T00:58:55;2.53;;;2.33;;
12814;SDS011;6472;52.328;13.070;2023-05-10T01:01:23;3.50;;;2.40;;
12814;SDS011;6472;52.328;13.070;2023-05-10T01:03:52;5.73;;;3.10;;
12814;SDS011;6472;52.328;13.070;2023-05-10T01:06:22;2.63;;;2.43;;
12814;SDS011;6472;52.328;13.070;2023-05-10T01:08:51;3.20;;;2.70;;
12814;SDS011;6472;52.328;13.070;2023-05-10T01:11:19;2.97;;;2.70;;
12814;SDS011;6472;52.328;13.070;2023-05-10T01:13:49;4.07;;;2.37;;
12814;SDS011;6472;52.328;13.070;2023-05-10T01:16:21;2.30;;;2.10;;
12814;SDS011;6472;52.328;13.070;2023-05-10T01:18:49;4.00;;;2.93;;
12814;SDS011;6472;52.328;13.070;2023-05-10T01:21:20;3.70;;;2.50;;
12814;SDS011;6472;52.328;13.070;2023-05-10T01:24:08;2.50;;;2.30;;
12814;SDS011;6472;52.328;13.070;2023-05-10T01:32:57;3.40;;;2.70;;
12814;SDS011;6472;52.328;13.070;2023-05-10T01:35:35;3.17;;;2.83;;
12814;SDS011;6472;52.328;13.070;2023-05-10T01:38:07;3.93;;;2.90;;
12814;SDS011;6472;52.328;13.070;2023-05-10T01:40:47;4.53;;;3.17;;
12814;SDS011;6472;52.328;13.070;2023-05-10T01:43:22;4.30;;;2.67;;
12814;SDS011;6472;52.328;13.070;2023-05-10T01:45:56;3.77;;;2.40;;
12814;SDS011;6472;52.328;13.070;2023-05-10T01:48:32;3.13;;;2.87;;
12814;SDS011;6472;52.328;13.070;2023-05-10T01:51:01;4.47;;;2.47;;
12814;SDS011;6472;52.328;13.070;2023-05-10T01:53:29;3.37;;;2.70;;
12814;SDS011;6472;52.328;13.070;2023-05-10T01:55:59;4.53;;;3.10;;
12814;SDS011;6472;52.328;13.070;2023-05-10T01:58:29;3.00;;;2.70;;
12814;SDS011;6472;52.328;13.070;2023-05-10T02:01:00;4.50;;;3.37;;
12814;SDS011;6472;52.328;13.070;2023-05-10T02:03:32;2.80;;;2.60;;
12814;SDS011;6472;52.328;13.070;2023-05-10T02:06:03;4.57;;;3.73;;
12814;SDS011;6472;52.328;13.070;2023-05-10T02:08:32;7.30;;;2.93;;
12814;SDS011;6472;52.328;13.070;2023-05-10T02:11:03;8.20;;;3.00;;
12814;SDS011;6472;52.328;13.070;2023-05-10T02:13:32;4.67;;;3.17;;
12814;SDS011;6472;52.328;13.070;2023-05-10T02:16:03;4.10;;;2.90;;
12814;SDS011;6472;52.328;13.070;2023-05-10T02:18:34;6.77;;;2.80;;
12814;SDS011;6472;52.328;13.070;2023-05-10T02:21:03;4.83;;;3.47;;
12814;SDS011;6472;52.328;13.070;2023-05-10T02:23:32;3.27;;;2.70;;
12814;SDS011;6472;52.328;13.070;2023-05-10T02:26:01;4.23;;;3.17;;
12814;SDS011;6472;52.328;13.070;2023-05-10T02:28:32;4.23;;;3.20;;
12814;SDS011;6472;52.328;13.070;2023-05-10T02:31:04;3.90;;;3.47;;
12814;SDS011;6472;52.328;13.070;2023-05-10T02:33:34;4.97;;;2.70;;
12814;SDS011;6472;52.328;13.070;2023-05-10T02:36:03;4.33;;;3.10;;
12814;SDS011;6472;52.328;13.070;2023-05-10T02:38:32;8.50;;;3.23;;
12814;SDS011;6472;52.328;13.070;2023-05-10T02:41:01;3.07;;;2.77;;
12814;SDS011;6472;52.328;13.070;2023-05-10T02:43:31;3.77;;;3.30;;
12814;SDS011;6472;52.328;13.070;2023-05-10T02:46:00;5.20;;;3.40;;
12814;SDS011;6472;52.328;13.070;2023-05-10T02:48:29;8.70;;;3.10;;
12814;SDS011;6472;52.328;13.070;2023-05-10T02:51:00;3.73;;;2.47;;
12814;SDS011;6472;52.328;13.070;2023-05-10T02:53:32;3.97;;;3.07;;
12814;SDS011;6472;52.328;13.070;2023-05-10T02:56:04;3.33;;;2.80;;
12814;SDS011;6472;52.328;13.070;2023-05-10T02:58:39;6.50;;;3.13;;
12814;SDS011;6472;52.328;13.070;2023-05-10T03:01:07;4.37;;;2.97;;
12814;SDS011;6472;52.328;13.070;2023-05-10T03:03:35;4.30;;;2.90;;
12814;SDS011;6472;52.328;13.070;2023-05-10T03:06:05;4.13;;;3.10;;
12814;SDS011;6472;52.328;13.070;2023-05-10T03:08:33;8.07;;;3.60;;
12814;SDS011;6472;52.328;13.070;2023-05-10T03:11:06;4.60;;;3.00;;
12814;SDS011;6472;52.328;13.070;2023-05-10T03:13:44;5.40;;;3.57;;
12814;SDS011;6472;52.328;13.070;2023-05-10T03:16:24;5.23;;;3.30;;
12814;SDS011;6472;52.328;13.070;2023-05-10T03:18:55;3.97;;;3.40;;
12814;SDS011;6472;52.328;13.070;2023-05-10T03:21:30;8.17;;;3.67;;
12814;SDS011;6472;52.328;13.070;2023-05-10T03:24:01;4.90;;;3.53;;
12814;SDS011;6472;52.328;13.070;2023-05-10T03:26:34;3.17;;;2.90;;
12814;SDS011;6472;52.328;13.070;2023-05-10T03:29:04;4.23;;;3.10;;
12814;SDS011;6472;52.328;13.070;2023-05-10T03:31:33;5.53;;;3.43;;
12814;SDS011;6472;52.328;13.070;2023-05-10T03:34:01;7.23;;;3.40;;
12814;SDS011;6472;52.328;13.070;2023-05-10T03:36:31;4.17;;;3.00;;
12814;SDS011;6472;52.328;13.070;2023-05-10T03:38:59;4.70;;;2.90;;
12814;SDS011;6472;52.328;13.070;2023-05-10T03:41:27;3.43;;;3.07;;
12814;SDS011;6472;52.328;13.070;2023-05-10T03:43:56;4.60;;;3.47;;
12814;SDS011;6472;52.328;13.070;2023-05-10T03:46:24;6.63;;;3.17;;
12814;SDS011;6472;52.328;13.070;2023-05-10T03:48:52;4.40;;;3.63;;
12814;SDS011;6472;52.328;13.070;2023-05-10T03:51:20;6.33;;;4.60;;
12814;SDS011;6472;52.328;13.070;2023-05-10T03:53:49;4.20;;;3.30;;
12814;SDS011;6472;52.328;13.070;2023-05-10T03:56:17;5.03;;;3.50;;
12814;SDS011;6472;52.328;13.070;2023-05-10T03:58:46;4.77;;;3.37;;
12814;SDS011;6472;52.328;13.070;2023-05-10T04:01:14;4.20;;;3.27;;
12814;SDS011;6472;52.328;13.070;2023-05-10T04:03:42;6.13;;;3.13;;
12814;SDS011;6472;52.328;13.070;2023-05-10T04:06:11;5.50;;;3.37;;
12814;SDS011;6472;52.328;13.070;2023-05-10T04:08:39;4.27;;;3.43;;
12814;SDS011;6472;52.328;13.070;2023-05-10T04:11:08;2.83;;;2.43;;
12814;SDS011;6472;52.328;13.070;2023-05-10T04:13:38;6.03;;;3.37;;
12814;SDS011;6472;52.328;13.070;2023-05-10T04:16:06;4.23;;;2.73;;
12814;SDS011;6472;52.328;13.070;2023-05-10T04:18:34;5.43;;;3.67;;
12814;SDS011;6472;52.328;13.070;2023-05-10T04:21:03;3.17;;;2.87;;
12814;SDS011;6472;52.328;13.070;2023-05-10T04:23:31;3.23;;;2.90;;
12814;SDS011;6472;52.328;13.070;2023-05-10T04:25:59;3.93;;;3.53;;
12814;SDS011;6472;52.328;13.070;2023-05-10T04:28:29;5.17;;;2.63;;
12814;SDS011;6472;52.328;13.070;2023-05-10T04:31:01;5.33;;;3.03;;
12814;SDS011;6472;52.328;13.070;2023-05-10T04:33:30;5.07;;;3.93;;
12814;SDS011;6472;52.328;13.070;2023-05-10T04:35:59;3.10;;;2.73;;
12814;SDS011;6472;52.328;13.070;2023-05-10T04:38:28;4.10;;;3.17;;
12814;SDS011;6472;52.328;13.070;2023-05-10T04:41:03;5.03;;;2.70;;
12814;SDS011;6472;52.328;13.070;2023-05-10T04:43:33;4.50;;;3.60;;
12814;SDS011;6472;52.328;13.070;2023-05-10T04:46:01;5.60;;;3.33;;
12814;SDS011;6472;52.328;13.070;2023-05-10T04:48:29;5.33;;;3.20;;
12814;SDS011;6472;52.328;13.070;2023-05-10T04:50:57;5.23;;;3.50;;
12814;SDS011;6472;52.328;13.070;2023-05-10T04:53:25;4.33;;;3.50;;
12814;SDS011;6472;52.328;13.070;2023-05-10T04:55:53;5.40;;;3.50;;
12814;SDS011;6472;52.328;13.070;2023-05-10T04:58:21;3.47;;;2.90;;
12814;SDS011;6472;52.328;13.070;2023-05-10T05:00:51;3.37;;;2.50;;
12814;SDS011;6472;52.328;13.070;2023-05-10T05:03:19;3.40;;;2.97;;
12814;SDS011;6472;52.328;13.070;2023-05-10T05:05:47;3.90;;;2.63;;
12814;SDS011;6472;52.328;13.070;2023-05-10T05:08:15;6.00;;;3.20;;
12814;SDS011;6472;52.328;13.070;2023-05-10T05:10:42;3.47;;;2.63;;
12814;SDS011;6472;52.328;13.070;2023-05-10T05:13:12;7.60;;;3.00;;
12814;SDS011;6472;52.328;13.070;2023-05-10T05:15:40;4.00;;;2.70;;
12814;SDS011;6472;52.328;13.070;2023-05-10T05:18:09;2.73;;;2.47;;
12814;SDS011;6472;52.328;13.070;2023-05-10T05:20:37;3.37;;;2.50;;
12814;SDS011;6472;52.328;13.070;2023-05-10T05:23:05;3.13;;;2.70;;
12814;SDS011;6472;52.328;13.070;2023-05-10T05:25:34;3.53;;;2.60;;
12814;SDS011;6472;52.328;13.070;2023-05-10T05:28:03;3.30;;;2.70;;
12814;SDS011;6472;52.328;13.070;2023-05-10T05:30:31;3.43;;;2.60;;
12814;SDS011;6472;52.328;13.070;2023-05-10T05:32:59;3.57;;;2.77;;
12814;SDS011;6472;52.328;13.070;2023-05-10T05:35:28;2.47;;;2.23;;
12814;SDS011;6472;52.328;13.070;2023-05-10T05:37:56;1.83;;;1.73;;
12814;SDS011;6472;52.328;13.070;2023-05-10T05:40:24;3.33;;;2.63;;
12814;SDS011;6472;52.328;13.070;2023-05-10T05:42:52;3.03;;;2.33;;
12814;SDS011;6472;52.328;13.070;2023-05-10T05:45:20;2.50;;;2.30;;
12814;SDS011;6472;52.328;13.070;2023-05-10T05:47:48;4.27;;;2.67;;
12814;SDS011;6472;52.328;13.070;2023-05-10T05:50:16;3.17;;;2.87;;
12814;SDS011;6472;52.328;13.070;2023-05-10T05:52:46;3.60;;;2.60;;
12814;SDS011;6472;52.328;13.070;2023-05-10T05:55:14;3.53;;;2.67;;
12814;SDS011;6472;52.328;13.070;2023-05-10T05:57:42;4.43;;;2.97;;
12814;SDS011;6472;52.328;13.070;2023-05-10T06:00:10;2.93;;;2.43;;
12814;SDS011;6472;52.328;13.070;2023-05-10T06:02:39;5.03;;;2.53;;
12814;SDS011;6472;52.328;13.070;2023-05-10T06:05:08;3.00;;;2.35;;
12814;SDS011;6472;52.328;13.070;2023-05-10T06:07:36;4.13;;;1.98;;
12814;SDS011;6472;52.328;13.070;2023-05-10T06:10:06;3.43;;;2.27;;
12814;SDS011;6472;52.328;13.070;2023-05-10T06:12:34;2.20;;;2.00;;
12814;SDS011;6472;52.328;13.070;2023-05-10T06:15:03;4.97;;;2.67;;
12814;SDS011;6472;52.328;13.070;2023-05-10T06:17:31;3.65;;;2.70;;
12814;SDS011;6472;52.328;13.070;2023-05-10T06:19:59;3.67;;;2.20;;
12814;SDS011;6472;52.328;13.070;2023-05-10T06:22:27;3.03;;;2.33;;
12814;SDS011;6472;52.328;13.070;2023-05-10T06:24:55;4.00;;;3.17;;
12814;SDS011;6472;52.328;13.070;2023-05-10T06:27:25;3.87;;;3.00;;
12814;SDS011;6472;52.328;13.070;2023-05-10T06:29:53;5.50;;;2.80;;
12814;SDS011;6472;52.328;13.070;2023-05-10T06:32:30;2.30;;;2.10;;
12814;SDS011;6472;52.328;13.070;2023-05-10T06:34:58;2.33;;;1.83;;
12814;SDS011;6472;52.328;13.070;2023-05-10T06:37:26;2.40;;;2.00;;
12814;SDS011;6472;52.328;13.070;2023-05-10T06:39:54;2.63;;;2.42;;
12814;SDS011;6472;52.328;13.070;2023-05-10T06:42:22;5.18;;;1.95;;
12814;SDS011;6472;52.328;13.070;2023-05-10T06:44:53;3.42;;;2.22;;
12814;SDS011;6472;52.328;13.070;2023-05-10T06:47:21;3.92;;;2.03;;
12814;SDS011;6472;52.328;13.070;2023-05-10T06:49:49;2.55;;;2.10;;
12814;SDS011;6472;52.328;13.070;2023-05-10T06:52:17;2.35;;;1.50;;
12814;SDS011;6472;52.328;13.070;2023-05-10T06:54:45;1.95;;;1.77;;
12814;SDS011;6472;52.328;13.070;2023-05-10T06:57:13;2.38;;;2.17;;
12814;SDS011;6472;52.328;13.070;2023-05-10T06:59:58;3.15;;;1.88;;
12814;SDS011;6472;52.328;13.070;2023-05-10T07:02:27;2.50;;;1.85;;
12814;SDS011;6472;52.328;13.070;2023-05-10T07:04:55;5.50;;;2.13;;
12814;SDS011;6472;52.328;13.070;2023-05-10T07:07:28;1.80;;;1.70;;
12814;SDS011;6472;52.328;13.070;2023-05-10T07:09:56;1.95;;;1.85;;
12814;SDS011;6472;52.328;13.070;2023-05-10T07:12:24;3.00;;;1.92;;
12814;SDS011;6472;52.328;13.070;2023-05-10T07:14:52;2.22;;;1.90;;
12814;SDS011;6472;52.328;13.070;2023-05-10T07:17:21;3.95;;;2.60;;
12814;SDS011;6472;52.328;13.070;2023-05-10T07:19:50;2.13;;;1.92;;
12814;SDS011;6472;52.328;13.070;2023-05-10T07:22:20;1.83;;;1.63;;
12814;SDS011;6472;52.328;13.070;2023-05-10T07:24:48;3.00;;;2.20;;
12814;SDS011;6472;52.328;13.070;2023-05-10T07:27:16;2.13;;;1.92;;
12814;SDS011;6472;52.328;13.070;2023-05-10T07:29:44;3.20;;;1.50;;
12814;SDS011;6472;52.328;13.070;2023-05-10T07:32:12;2.33;;;1.55;;
12814;SDS011;6472;52.328;13.070;2023-05-10T07:34:41;1.60;;;1.50;;
12814;SDS011;6472;52.328;13.070;2023-05-10T07:37:09;1.85;;;1.75;;
12814;SDS011;6472;52.328;13.070;2023-05-10T07:39:39;2.00;;;1.90;;
12814;SDS011;6472;52.328;13.070;2023-05-10T07:42:07;1.67;;;1.58;;
12814;SDS011;6472;52.328;13.070;2023-05-10T07:44:35;1.80;;;1.70;;
12814;SDS011;6472;52.328;13.070;2023-05-10T07:47:03;3.58;;;1.85;;
12814;SDS011;6472;52.328;13.070;2023-05-10T07:49:31;1.23;;;1.05;;
12814;SDS011;6472;52.328;13.070;2023-05-10T07:52:01;1.65;;;1.55;;
12814;SDS011;6472;52.328;13.070;2023-05-10T07:54:30;1.70;;;1.60;;
12814;SDS011;6472;52.328;13.070;2023-05-10T07:56:59;4.75;;;1.67;;
12814;SDS011;6472;52.328;13.070;2023-05-10T07:59:27;2.03;;;1.92;;
12814;SDS011;6472;52.328;13.070;2023-05-10T08:01:55;1.40;;;1.30;;
12814;SDS011;6472;52.328;13.070;2023-05-10T08:04:23;1.08;;;1.08;;
12814;SDS011;6472;52.328;13.070;2023-05-10T08:06:51;1.63;;;1.50;;
12814;SDS011;6472;52.328;13.070;2023-05-10T08:09:20;2.55;;;1.83;;
12814;SDS011;6472;52.328;13.070;2023-05-10T08:11:50;1.52;;;1.42;;
12814;SDS011;6472;52.328;13.070;2023-05-10T08:14:18;1.75;;;1.65;;
12814;SDS011;6472;52.328;13.070;2023-05-10T08:16:46;1.60;;;1.48;;
12814;SDS011;6472;52.328;13.070;2023-05-10T08:19:14;1.33;;;1.30;;
12814;SDS011;6472;52.328;13.070;2023-05-10T08:21:45;1.98;;;1.85;;
12814;SDS011;6472;52.328;13.070;2023-05-10T08:24:13;2.30;;;1.60;;
12814;SDS011;6472;52.328;13.070;2023-05-10T08:26:42;1.55;;;1.20;;
12814;SDS011;6472;52.328;13.070;2023-05-10T08:29:11;2.13;;;1.90;;
12814;SDS011;6472;52.328;13.070;2023-05-10T08:31:39;3.03;;;1.70;;
12814;SDS011;6472;52.328;13.070;2023-05-10T08:34:07;2.92;;;1.38;;
12814;SDS011;6472;52.328;13.070;2023-05-10T08:36:35;1.70;;;1.55;;
12814;SDS011;6472;52.328;13.070;2023-05-10T08:39:03;2.45;;;1.80;;
12814;SDS011;6472;52.328;13.070;2023-05-10T08:41:46;1.95;;;1.75;;
12814;SDS011;6472;52.328;13.070;2023-05-10T08:44:15;1.83;;;1.70;;
12814;SDS011;6472;52.328;13.070;2023-05-10T08:46:46;3.05;;;1.65;;
12814;SDS011;6472;52.328;13.070;2023-05-10T08:49:17;2.88;;;1.67;;
12814;SDS011;6472;52.328;13.070;2023-05-10T08:51:50;2.63;;;1.65;;
12814;SDS011;6472;52.328;13.070;2023-05-10T08:54:22;1.90;;;1.80;;
12814;SDS011;6472;52.328;13.070;2023-05-10T08:56:52;3.33;;;1.85;;
12814;SDS011;6472;52.328;13.070;2023-05-10T08:59:20;1.95;;;1.50;;
12814;SDS011;6472;52.328;13.070;2023-05-10T09:01:48;2.03;;;1.80;;
12814;SDS011;6472;52.328;13.070;2023-05-10T09:04:17;1.75;;;1.63;;
12814;SDS011;6472;52.328;13.070;2023-05-10T09:06:46;1.80;;;1.70;;
12814;SDS011;6472;52.328;13.070;2023-05-10T09:09:14;1.63;;;1.45;;
12814;SDS011;6472;52.328;13.070;2023-05-10T09:11:44;2.10;;;1.40;;
12814;SDS011;6472;52.328;13.070;2023-05-10T09:14:14;3.17;;;1.75;;
12814;SDS011;6472;52.328;13.070;2023-05-10T09:16:43;1.77;;;1.55;;
12814;SDS011;6472;52.328;13.070;2023-05-10T09:19:11;2.00;;;1.80;;
12814;SDS011;6472;52.328;13.070;2023-05-10T09:21:39;4.43;;;1.60;;
12814;SDS011;6472;52.328;13.070;2023-05-10T09:24:08;1.92;;;1.65;;
12814;SDS011;6472;52.328;13.070;2023-05-10T09:26:39;1.55;;;1.30;;
12814;SDS011;6472;52.328;13.070;2023-05-10T09:29:15;2.08;;;1.98;;
12814;SDS011;6472;52.328;13.070;2023-05-10T09:31:44;2.20;;;2.00;;
12814;SDS011;6472;52.328;13.070;2023-05-10T09:34:17;2.20;;;1.67;;
12814;SDS011;6472;52.328;13.070;2023-05-10T09:36:54;1.55;;;1.45;;
12814;SDS011;6472;52.328;13.070;2023-05-10T09:39:29;2.30;;;1.70;;
12814;SDS011;6472;52.328;13.070;2023-05-10T09:41:59;1.58;;;1.48;;
12814;SDS011;6472;52.328;13.070;2023-05-10T09:44:31;1.70;;;1.60;;
12814;SDS011;6472;52.328;13.070;2023-05-10T09:47:00;1.73;;;1.63;;
12814;SDS011;6472;52.328;13.070;2023-05-10T09:49:28;3.40;;;1.63;;
12814;SDS011;6472;52.328;13.070;2023-05-10T09:52:00;1.70;;;1.48;;
12814;SDS011;6472;52.328;13.070;2023-05-10T09:54:29;2.30;;;1.20;;
12814;SDS011;6472;52.328;13.070;2023-05-10T09:56:57;2.15;;;1.80;;
12814;SDS011;6472;52.328;13.070;2023-05-10T09:59:26;1.65;;;1.55;;
12814;SDS011;6472;52.328;13.070;2023-05-10T10:01:57;1.30;;;1.20;;
12814;SDS011;6472;52.328;13.070;2023-05-10T10:04:27;1.48;;;1.40;;
12814;SDS011;6472;52.328;13.070;2023-05-10T10:06:59;1.67;;;1.40;;
12814;SDS011;6472;52.328;13.070;2023-05-10T10:09:28;4.55;;;1.85;;
12814;SDS011;6472;52.328;13.070;2023-05-10T10:11:56;2.13;;;1.92;;
12814;SDS011;6472;52.328;13.070;2023-05-10T10:14:25;1.70;;;1.60;;
12814;SDS011;6472;52.328;13.070;2023-05-10T10:16:53;1.60;;;1.48;;
12814;SDS011;6472;52.328;13.070;2023-05-10T10:19:35;1.40;;;1.30;;
12814;SDS011;6472;52.328;13.070;2023-05-10T10:22:03;2.75;;;1.45;;
12814;SDS011;6472;52.328;13.070;2023-05-10T10:24:32;1.73;;;1.50;;
12814;SDS011;6472;52.328;13.070;2023-05-10T10:27:02;1.35;;;1.33;;
12814;SDS011;6472;52.328;13.070;2023-05-10T10:29:36;2.35;;;1.60;;
12814;SDS011;6472;52.328;13.070;2023-05-10T10:32:17;1.55;;;1.45;;
12814;SDS011;6472;52.328;13.070;2023-05-10T10:34:55;4.45;;;1.63;;
12814;SDS011;6472;52.328;13.070;2023-05-10T10:37:23;1.50;;;1.40;;
12814;SDS011;6472;52.328;13.070;2023-05-10T10:40:22;1.42;;;1.33;;
12814;SDS011;6472;52.328;13.070;2023-05-10T10:42:51;1.40;;;1.30;;
12814;SDS011;6472;52.328;13.070;2023-05-10T10:45:20;1.20;;;1.20;;
12814;SDS011;6472;52.328;13.070;2023-05-10T10:47:53;2.25;;;1.83;;
12814;SDS011;6472;52.328;13.070;2023-05-10T10:50:44;1.38;;;1.20;;
12814;SDS011;6472;52.328;13.070;2023-05-10T10:53:13;2.70;;;1.70;;
12814;SDS011;6472;52.328;13.070;2023-05-10T10:55:46;1.50;;;1.38;;
12814;SDS011;6472;52.328;13.070;2023-05-10T10:58:28;2.28;;;1.50;;
12814;SDS011;6472;52.328;13.070;2023-05-10T11:01:11;3.10;;;1.92;;
12814;SDS011;6472;52.328;13.070;2023-05-10T11:03:41;1.88;;;1.65;;
12814;SDS011;6472;52.328;13.070;2023-05-10T11:06:29;2.13;;;1.90;;
12814;SDS011;6472;52.328;13.070;2023-05-10T11:09:00;1.92;;;1.58;;
12814;SDS011;6472;52.328;13.070;2023-05-10T11:11:34;2.50;;;1.48;;
12814;SDS011;6472;52.328;13.070;2023-05-10T11:14:02;1.40;;;1.30;;
12814;SDS011;6472;52.328;13.070;2023-05-10T11:16:40;3.70;;;1.60;;
12814;SDS011;6472;52.328;13.070;2023-05-10T11:19:10;1.88;;;1.48;;
12814;SDS011;6472;52.328;13.070;2023-05-10T11:21:48;1.65;;;1.48;;
12814;SDS011;6472;52.328;13.070;2023-05-10T11:24:17;1.55;;;1.45;;
12814;SDS011;6472;52.328;13.070;2023-05-10T11:26:49;1.70;;;1.35;;
12814;SDS011;6472;52.328;13.070;2023-05-10T11:29:17;1.75;;;1.65;;
12814;SDS011;6472;52.328;13.070;2023-05-10T11:31:46;2.20;;;1.63;;
12814;SDS011;6472;52.328;13.070;2023-05-10T11:34:22;1.60;;;1.50;;
12814;SDS011;6472;52.328;13.070;2023-05-10T11:36:53;1.38;;;1.27;;
12814;SDS011;6472;52.328;13.070;2023-05-10T11:39:25;1.88;;;1.45;;
12814;SDS011;6472;52.328;13.070;2023-05-10T11:41:54;1.98;;;1.38;;
12814;SDS011;6472;52.328;13.070;2023-05-10T11:44:22;1.52;;;1.42;;
12814;SDS011;6472;52.328;13.070;2023-05-10T11:46:51;1.70;;;1.60;;
12814;SDS011;6472;52.328;13.070;2023-05-10T11:49:20;1.67;;;1.23;;
12814;SDS011;6472;52.328;13.070;2023-05-10T11:51:50;1.45;;;1.38;;
12814;SDS011;6472;52.328;13.070;2023-05-10T11:54:19;2.22;;;1.58;;
12814;SDS011;6472;52.328;13.070;2023-05-10T11:56:48;1.33;;;1.23;;
12814;SDS011;6472;52.328;13.070;2023-05-10T11:59:18;1.23;;;1.23;;
12814;SDS011;6472;52.328;13.070;2023-05-10T12:01:46;3.45;;;1.42;;
12814;SDS011;6472;52.328;13.070;2023-05-10T12:04:15;1.85;;;1.40;;
12814;SDS011;6472;52.328;13.070;2023-05-10T12:06:44;1.27;;;1.20;;
12814;SDS011;6472;52.328;13.070;2023-05-10T12:09:14;1.70;;;1.60;;
12814;SDS011;6472;52.328;13.070;2023-05-10T12:11:48;4.47;;;1.67;;
12814;SDS011;6472;52.328;13.070;2023-05-10T12:14:16;1.13;;;1.13;;
12814;SDS011;6472;52.328;13.070;2023-05-10T12:16:45;1.48;;;1.38;;
12814;SDS011;6472;52.328;13.070;2023-05-10T12:19:17;2.10;;;1.50;;
12814;SDS011;6472;52.328;13.070;2023-05-10T12:21:46;3.00;;;1.80;;
12814;SDS011;6472;52.328;13.070;2023-05-10T12:24:16;1.48;;;1.38;;
12814;SDS011;6472;52.328;13.070;2023-05-10T12:26:45;1.60;;;1.50;;
12814;SDS011;6472;52.328;13.070;2023-05-10T12:29:32;1.42;;;1.30;;
12814;SDS011;6472;52.328;13.070;2023-05-10T12:32:01;1.40;;;1.30;;
12814;SDS011;6472;52.328;13.070;2023-05-10T12:34:31;1.50;;;1.40;;
12814;SDS011;6472;52.328;13.070;2023-05-10T12:37:00;1.33;;;1.23;;
12814;SDS011;6472;52.328;13.070;2023-05-10T12:39:39;2.25;;;1.48;;
12814;SDS011;6472;52.328;13.070;2023-05-10T12:42:08;1.40;;;1.30;;
12814;SDS011;6472;52.328;13.070;2023-05-10T12:44:36;1.85;;;1.40;;
12814;SDS011;6472;52.328;13.070;2023-05-10T12:47:04;1.50;;;1.40;;
12814;SDS011;6472;52.328;13.070;2023-05-10T12:49:33;1.55;;;1.45;;
12814;SDS011;6472;52.328;13.070;2023-05-10T12:52:01;1.70;;;1.60;;
12814;SDS011;6472;52.328;13.070;2023-05-10T12:54:29;1.85;;;1.50;;
12814;SDS011;6472;52.328;13.070;2023-05-10T12:56:58;1.52;;;1.38;;
12814;SDS011;6472;52.328;13.070;2023-05-10T12:59:26;1.58;;;1.48;;
12814;SDS011;6472;52.328;13.070;2023-05-10T13:01:54;1.20;;;1.20;;
12814;SDS011;6472;52.328;13.070;2023-05-10T13:04:22;1.33;;;1.23;;
12814;SDS011;6472;52.328;13.070;2023-05-10T13:06:50;1.73;;;1.63;;
12814;SDS011;6472;52.328;13.070;2023-05-10T13:09:18;1.88;;;1.77;;
12814;SDS011;6472;52.328;13.070;2023-05-10T13:11:47;2.92;;;1.80;;
12814;SDS011;6472;52.328;13.070;2023-05-10T13:14:17;1.40;;;1.30;;
12814;SDS011;6472;52.328;13.070;2023-05-10T13:16:46;1.77;;;1.67;;
12814;SDS011;6472;52.328;13.070;2023-05-10T13:19:15;1.70;;;1.50;;
12814;SDS011;6472;52.328;13.070;2023-05-10T13:21:44;1.73;;;1.55;;
12814;SDS011;6472;52.328;13.070;2023-05-10T13:24:13;3.28;;;1.98;;
12814;SDS011;6472;52.328;13.070;2023-05-10T13:26:41;1.85;;;1.73;;
12814;SDS011;6472;52.328;13.070;2023-05-10T13:29:09;3.17;;;1.67;;
12814;SDS011;6472;52.328;13.070;2023-05-10T13:31:38;1.73;;;1.55;;
12814;SDS011;6472;52.328;13.070;2023-05-10T13:34:06;1.42;;;1.33;;
12814;SDS011;6472;52.328;13.070;2023-05-10T13:36:34;4.22;;;1.60;;
12814;SDS011;6472;52.328;13.070;2023-05-10T13:39:02;1.65;;;1.55;;
12814;SDS011;6472;52.328;13.070;2023-05-10T13:41:31;4.72;;;1.70;;
12814;SDS011;6472;52.328;13.070;2023-05-10T13:43:59;2.55;;;1.55;;
12814;SDS011;6472;52.328;13.070;2023-05-10T13:46:28;1.85;;;1.50;;
12814;SDS011;6472;52.328;13.070;2023-05-10T13:48:57;1.55;;;1.45;;
12814;SDS011;6472;52.328;13.070;2023-05-10T13:51:25;1.70;;;1.60;;
12814;SDS011;6472;52.328;13.070;2023-05-10T13:53:54;1.70;;;1.58;;
12814;SDS011;6472;52.328;13.070;2023-05-10T13:56:22;1.83;;;1.67;;
12814;SDS011;6472;52.328;13.070;2023-05-10T13:58:50;1.63;;;1.38;;
12814;SDS011;6472;52.328;13.070;2023-05-10T14:01:18;2.05;;;1.77;;
12814;SDS011;6472;52.328;13.070;2023-05-10T14:03:46;3.88;;;1.67;;
12814;SDS011;6472;52.328;13.070;2023-05-10T14:06:16;1.63;;;1.50;;
12814;SDS011;6472;52.328;13.070;2023-05-10T14:08:46;1.50;;;1.40;;
12814;SDS011;6472;52.328;13.070;2023-05-10T14:11:14;2.05;;;1.40;;
12814;SDS011;6472;52.328;13.070;2023-05-10T14:13:42;1.90;;;1.70;;
12814;SDS011;6472;52.328;13.070;2023-05-10T14:16:10;1.38;;;1.27;;
12814;SDS011;6472;52.328;13.070;2023-05-10T14:18:41;1.67;;;1.58;;
12814;SDS011;6472;52.328;13.070;2023-05-10T14:21:09;1.88;;;1.30;;
12814;SDS011;6472;52.328;13.070;2023-05-10T14:23:38;1.50;;;1.40;;
12814;SDS011;6472;52.328;13.070;2023-05-10T14:26:07;1.60;;;1.50;;
12814;SDS011;6472;52.328;13.070;2023-05-10T14:28:35;1.65;;;1.50;;
12814;SDS011;6472;52.328;13.070;2023-05-10T14:31:03;1.60;;;1.50;;
12814;SDS011;6472;52.328;13.070;2023-05-10T14:33:31;1.45;;;1.33;;
12814;SDS011;6472;52.328;13.070;2023-05-10T14:35:59;2.53;;;1.80;;
12814;SDS011;6472;52.328;13.070;2023-05-10T14:38:29;1.88;;;1.73;;
12814;SDS011;6472;52.328;13.070;2023-05-10T14:40:59;1.85;;;1.70;;
12814;SDS011;6472;52.328;13.070;2023-05-10T14:43:28;2.00;;;1.55;;
12814;SDS011;6472;52.328;13.070;2023-05-10T14:45:57;2.25;;;1.75;;
12814;SDS011;6472;52.328;13.070;2023-05-10T14:48:25;2.80;;;1.92;;
12814;SDS011;6472;52.328;13.070;2023-05-10T14:50:53;2.03;;;1.92;;
12814;SDS011;6472;52.328;13.070;2023-05-10T14:53:21;1.85;;;1.75;;
12814;SDS011;6472;52.328;13.070;2023-05-10T14:55:50;1.95;;;1.85;;
12814;SDS011;6472;52.328;13.070;2023-05-10T14:58:20;2.35;;;2.20;;
12814;SDS011;6472;52.328;13.070;2023-05-10T15:00:48;2.20;;;2.00;;
12814;SDS011;6472;52.328;13.070;2023-05-10T15:03:16;3.13;;;2.38;;
12814;SDS011;6472;52.328;13.070;2023-05-10T15:05:46;2.50;;;2.03;;
12814;SDS011;6472;52.328;13.070;2023-05-10T15:08:14;2.20;;;2.03;;
12814;SDS011;6472;52.328;13.070;2023-05-10T15:10:42;3.05;;;2.20;;